sensor_id;sensor_type;location;lat;lon;timestamp;P1;durP1;ratioP1;P2;durP2;ratioP2
23952;SDS011;12163;49.316;6.092;2024-03-23T00:54:36;21.30;;;13.77;;
23952;SDS011;12163;49.316;6.092;2024-03-23T00:57:01;19.02;;;13.38;;
23952;SDS011;12163;49.316;6.092;2024-03-23T00:59:27;23.17;;;13.80;;
23952;SDS011;12163;49.316;6.092;2024-03-23T01:01:54;22.20;;;13.52;;
23952;SDS011;12163;49.316;6.092;2024-03-23T01:04:20;22.95;;;13.95;;
23952;SDS011;12163;49.316;6.092;2024-03-23T01:06:45;24.55;;;15.00;;
23952;SDS011;12163;49.316;6.092;2024-03-23T01:09:11;24.20;;;14.32;;
23952;SDS011;12163;49.316;6.092;2024-03-23T01:11:37;21.23;;;14.05;;
23952;SDS011;12163;49.316;6.092;2024-03-23T01:14:02;22.60;;;14.07;;
23952;SDS011;12163;49.316;6.092;2024-03-23T01:16:28;22.75;;;14.07;;
23952;SDS011;12163;49.316;6.092;2024-03-23T01:18:54;22.65;;;14.65;;
23952;SDS011;12163;49.316;6.092;2024-03-23T01:21:19;21.25;;;14.05;;
23952;SDS011;12163;49.316;6.092;2024-03-23T01:23:45;21.80;;;11.80;;
23952;SDS011;12163;49.316;6.092;2024-03-23T01:26:11;20.60;;;12.95;;
23952;SDS011;12163;49.316;6.092;2024-03-23T01:28:36;14.20;;;9.60;;
23952;SDS011;12163;49.316;6.092;2024-03-23T01:31:02;9.05;;;6.60;;
23952;SDS011;12163;49.316;6.092;2024-03-23T01:33:28;8.10;;;5.63;;
23952;SDS011;12163;49.316;6.092;2024-03-23T01:35:53;6.45;;;4.20;;
23952;SDS011;12163;49.316;6.092;2024-03-23T01:38:19;5.60;;;3.65;;
23952;SDS011;12163;49.316;6.092;2024-03-23T01:40:44;3.83;;;2.33;;
23952;SDS011;12163;49.316;6.092;2024-03-23T01:43:10;2.45;;;1.83;;
23952;SDS011;12163;49.316;6.092;2024-03-23T01:45:36;4.80;;;1.05;;
23952;SDS011;12163;49.316;6.092;2024-03-23T01:48:03;2.25;;;0.70;;
23952;SDS011;12163;49.316;6.092;2024-03-23T01:50:30;2.35;;;0.50;;
23952;SDS011;12163;49.316;6.092;2024-03-23T01:52:59;1.30;;;0.55;;
23952;SDS011;12163;49.316;6.092;2024-03-23T01:55:28;1.65;;;0.50;;
23952;SDS011;12163;49.316;6.092;2024-03-23T01:57:56;1.98;;;0.68;;
23952;SDS011;12163;49.316;6.092;2024-03-23T02:00:22;0.82;;;0.40;;
23952;SDS011;12163;49.316;6.092;2024-03-23T02:02:48;1.25;;;0.40;;
23952;SDS011;12163;49.316;6.092;2024-03-23T02:05:14;1.48;;;0.60;;
23952;SDS011;12163;49.316;6.092;2024-03-23T02:07:40;0.85;;;0.50;;
23952;SDS011;12163;49.316;6.092;2024-03-23T02:10:08;3.10;;;0.60;;
23952;SDS011;12163;49.316;6.092;2024-03-23T02:12:35;2.33;;;0.88;;
23952;SDS011;12163;49.316;6.092;2024-03-23T02:15:02;1.48;;;0.80;;
23952;SDS011;12163;49.316;6.092;2024-03-23T02:17:29;0.43;;;0.43;;
23952;SDS011;12163;49.316;6.092;2024-03-23T02:19:56;1.20;;;0.88;;
23952;SDS011;12163;49.316;6.092;2024-03-23T02:22:21;1.00;;;0.65;;
23952;SDS011;12163;49.316;6.092;2024-03-23T02:24:47;1.17;;;0.50;;
23952;SDS011;12163;49.316;6.092;2024-03-23T02:27:12;0.65;;;0.63;;
23952;SDS011;12163;49.316;6.092;2024-03-23T02:29:38;0.77;;;0.60;;
23952;SDS011;12163;49.316;6.092;2024-03-23T02:32:04;0.60;;;0.60;;
23952;SDS011;12163;49.316;6.092;2024-03-23T02:34:29;0.63;;;0.63;;
23952;SDS011;12163;49.316;6.092;2024-03-23T02:36:55;1.63;;;0.73;;
23952;SDS011;12163;49.316;6.092;2024-03-23T02:39:21;1.65;;;0.98;;
23952;SDS011;12163;49.316;6.092;2024-03-23T02:41:46;0.95;;;0.75;;
23952;SDS011;12163;49.316;6.092;2024-03-23T02:44:13;1.67;;;0.80;;
23952;SDS011;12163;49.316;6.092;2024-03-23T02:46:39;1.27;;;0.90;;
23952;SDS011;12163;49.316;6.092;2024-03-23T02:49:05;1.38;;;1.20;;
23952;SDS011;12163;49.316;6.092;2024-03-23T02:51:30;1.58;;;1.20;;
23952;SDS011;12163;49.316;6.092;2024-03-23T02:53:56;0.90;;;0.90;;
23952;SDS011;12163;49.316;6.092;2024-03-23T02:56:22;1.75;;;0.95;;
23952;SDS011;12163;49.316;6.092;2024-03-23T02:58:48;1.05;;;0.90;;
23952;SDS011;12163;49.316;6.092;2024-03-23T03:01:13;1.60;;;1.30;;
23952;SDS011;12163;49.316;6.092;2024-03-23T03:03:39;4.10;;;1.00;;
23952;SDS011;12163;49.316;6.092;2024-03-23T03:06:05;2.78;;;1.35;;
23952;SDS011;12163;49.316;6.092;2024-03-23T03:08:30;3.50;;;1.60;;
23952;SDS011;12163;49.316;6.092;2024-03-23T03:10:56;2.17;;;1.60;;
23952;SDS011;12163;49.316;6.092;2024-03-23T03:13:22;1.65;;;1.55;;
23952;SDS011;12163;49.316;6.092;2024-03-23T03:15:47;4.95;;;1.75;;
23952;SDS011;12163;49.316;6.092;2024-03-23T03:18:13;2.72;;;1.80;;
23952;SDS011;12163;49.316;6.092;2024-03-23T03:20:41;4.07;;;1.70;;
23952;SDS011;12163;49.316;6.092;2024-03-23T03:23:07;2.25;;;1.52;;
23952;SDS011;12163;49.316;6.092;2024-03-23T03:25:33;1.60;;;1.50;;
23952;SDS011;12163;49.316;6.092;2024-03-23T03:27:59;2.95;;;1.50;;
23952;SDS011;12163;49.316;6.092;2024-03-23T03:30:24;2.75;;;1.50;;
23952;SDS011;12163;49.316;6.092;2024-03-23T03:32:53;1.80;;;1.50;;
23952;SDS011;12163;49.316;6.092;2024-03-23T03:35:18;2.55;;;1.70;;
23952;SDS011;12163;49.316;6.092;2024-03-23T03:37:44;2.10;;;1.70;;
23952;SDS011;12163;49.316;6.092;2024-03-23T03:40:10;1.88;;;1.60;;
23952;SDS011;12163;49.316;6.092;2024-03-23T03:42:36;2.70;;;1.80;;
23952;SDS011;12163;49.316;6.092;2024-03-23T03:45:02;4.38;;;1.80;;
23952;SDS011;12163;49.316;6.092;2024-03-23T03:47:29;2.00;;;1.60;;
23952;SDS011;12163;49.316;6.092;2024-03-23T03:49:55;2.15;;;1.65;;
23952;SDS011;12163;49.316;6.092;2024-03-23T03:52:21;1.58;;;1.23;;
23952;SDS011;12163;49.316;6.092;2024-03-23T03:54:47;2.58;;;1.20;;
23952;SDS011;12163;49.316;6.092;2024-03-23T03:57:12;1.33;;;1.00;;
23952;SDS011;12163;49.316;6.092;2024-03-23T03:59:38;2.60;;;0.93;;
23952;SDS011;12163;49.316;6.092;2024-03-23T04:02:03;1.05;;;0.73;;
23952;SDS011;12163;49.316;6.092;2024-03-23T04:04:29;1.73;;;0.88;;
23952;SDS011;12163;49.316;6.092;2024-03-23T04:06:59;0.70;;;0.70;;
23952;SDS011;12163;49.316;6.092;2024-03-23T04:09:25;1.20;;;0.82;;
23952;SDS011;12163;49.316;6.092;2024-03-23T04:11:51;1.52;;;0.80;;
23952;SDS011;12163;49.316;6.092;2024-03-23T04:14:16;0.85;;;0.70;;
23952;SDS011;12163;49.316;6.092;2024-03-23T04:16:42;1.05;;;0.85;;
23952;SDS011;12163;49.316;6.092;2024-03-23T04:19:07;2.25;;;0.90;;
23952;SDS011;12163;49.316;6.092;2024-03-23T04:21:33;1.05;;;0.90;;
23952;SDS011;12163;49.316;6.092;2024-03-23T04:23:59;2.28;;;1.10;;
23952;SDS011;12163;49.316;6.092;2024-03-23T04:26:24;2.50;;;1.63;;
23952;SDS011;12163;49.316;6.092;2024-03-23T04:28:50;2.72;;;1.10;;
23952;SDS011;12163;49.316;6.092;2024-03-23T04:31:16;4.95;;;1.10;;
23952;SDS011;12163;49.316;6.092;2024-03-23T04:33:41;3.55;;;1.30;;
23952;SDS011;12163;49.316;6.092;2024-03-23T04:36:07;2.55;;;1.20;;
23952;SDS011;12163;49.316;6.092;2024-03-23T04:38:32;4.70;;;1.77;;
23952;SDS011;12163;49.316;6.092;2024-03-23T04:40:58;7.50;;;2.40;;
23952;SDS011;12163;49.316;6.092;2024-03-23T04:43:27;5.30;;;2.08;;
23952;SDS011;12163;49.316;6.092;2024-03-23T04:45:53;10.10;;;2.40;;
23952;SDS011;12163;49.316;6.092;2024-03-23T04:48:22;9.50;;;2.70;;
23952;SDS011;12163;49.316;6.092;2024-03-23T04:50:49;7.57;;;2.75;;
23952;SDS011;12163;49.316;6.092;2024-03-23T04:53:15;9.60;;;3.53;;
23952;SDS011;12163;49.316;6.092;2024-03-23T04:55:41;8.18;;;3.40;;
23952;SDS011;12163;49.316;6.092;2024-03-23T04:58:07;8.43;;;3.28;;
23952;SDS011;12163;49.316;6.092;2024-03-23T05:00:33;10.90;;;3.55;;
23952;SDS011;12163;49.316;6.092;2024-03-23T05:02:59;9.60;;;3.50;;
23952;SDS011;12163;49.316;6.092;2024-03-23T05:05:24;9.48;;;3.35;;
23952;SDS011;12163;49.316;6.092;2024-03-23T05:07:50;9.18;;;3.42;;
23952;SDS011;12163;49.316;6.092;2024-03-23T05:10:16;6.80;;;3.53;;
23952;SDS011;12163;49.316;6.092;2024-03-23T05:12:41;8.15;;;3.20;;
23952;SDS011;12163;49.316;6.092;2024-03-23T05:15:07;11.85;;;3.40;;
23952;SDS011;12163;49.316;6.092;2024-03-23T05:17:33;8.93;;;3.53;;
23952;SDS011;12163;49.316;6.092;2024-03-23T05:19:59;5.97;;;3.50;;
23952;SDS011;12163;49.316;6.092;2024-03-23T05:22:25;10.32;;;3.75;;
23952;SDS011;12163;49.316;6.092;2024-03-23T05:24:50;11.63;;;4.25;;
23952;SDS011;12163;49.316;6.092;2024-03-23T05:27:16;9.65;;;3.85;;
23952;SDS011;12163;49.316;6.092;2024-03-23T05:29:41;12.52;;;4.47;;
23952;SDS011;12163;49.316;6.092;2024-03-23T05:32:07;11.38;;;4.22;;
23952;SDS011;12163;49.316;6.092;2024-03-23T05:34:33;12.05;;;4.43;;
23952;SDS011;12163;49.316;6.092;2024-03-23T05:36:58;9.20;;;4.28;;
23952;SDS011;12163;49.316;6.092;2024-03-23T05:39:24;8.20;;;4.35;;
23952;SDS011;12163;49.316;6.092;2024-03-23T05:41:50;12.57;;;4.60;;
23952;SDS011;12163;49.316;6.092;2024-03-23T05:44:16;11.30;;;4.45;;
23952;SDS011;12163;49.316;6.092;2024-03-23T05:46:42;10.38;;;4.47;;
23952;SDS011;12163;49.316;6.092;2024-03-23T05:49:08;10.27;;;4.15;;
23952;SDS011;12163;49.316;6.092;2024-03-23T05:51:34;6.85;;;3.70;;
23952;SDS011;12163;49.316;6.092;2024-03-23T05:54:00;11.73;;;4.72;;
23952;SDS011;12163;49.316;6.092;2024-03-23T05:56:26;12.88;;;4.88;;
23952;SDS011;12163;49.316;6.092;2024-03-23T05:58:52;14.10;;;6.03;;
23952;SDS011;12163;49.316;6.092;2024-03-23T06:01:18;12.88;;;4.78;;
23952;SDS011;12163;49.316;6.092;2024-03-23T06:03:43;15.93;;;6.20;;
23952;SDS011;12163;49.316;6.092;2024-03-23T06:06:09;15.65;;;5.82;;
23952;SDS011;12163;49.316;6.092;2024-03-23T06:08:37;20.75;;;7.03;;
23952;SDS011;12163;49.316;6.092;2024-03-23T06:11:03;23.40;;;6.25;;
23952;SDS011;12163;49.316;6.092;2024-03-23T06:13:31;23.20;;;8.27;;
23952;SDS011;12163;49.316;6.092;2024-03-23T06:15:57;18.70;;;7.03;;
23952;SDS011;12163;49.316;6.092;2024-03-23T06:18:24;18.27;;;7.70;;
23952;SDS011;12163;49.316;6.092;2024-03-23T06:20:49;18.17;;;7.85;;
23952;SDS011;12163;49.316;6.092;2024-03-23T06:23:15;20.65;;;7.70;;
23952;SDS011;12163;49.316;6.092;2024-03-23T06:25:43;19.80;;;8.43;;
23952;SDS011;12163;49.316;6.092;2024-03-23T06:28:09;22.95;;;8.38;;
23952;SDS011;12163;49.316;6.092;2024-03-23T06:30:36;21.05;;;8.57;;
23952;SDS011;12163;49.316;6.092;2024-03-23T06:33:01;28.38;;;9.57;;
23952;SDS011;12163;49.316;6.092;2024-03-23T06:35:27;20.08;;;8.90;;
23952;SDS011;12163;49.316;6.092;2024-03-23T06:37:53;20.20;;;8.65;;
23952;SDS011;12163;49.316;6.092;2024-03-23T06:40:18;14.98;;;5.70;;
23952;SDS011;12163;49.316;6.092;2024-03-23T06:42:44;15.30;;;5.63;;
23952;SDS011;12163;49.316;6.092;2024-03-23T06:45:09;11.32;;;4.57;;
23952;SDS011;12163;49.316;6.092;2024-03-23T06:47:35;4.28;;;2.28;;
23952;SDS011;12163;49.316;6.092;2024-03-23T06:50:02;6.30;;;2.63;;
23952;SDS011;12163;49.316;6.092;2024-03-23T06:52:29;11.18;;;2.90;;
23952;SDS011;12163;49.316;6.092;2024-03-23T06:54:55;4.75;;;1.98;;
23952;SDS011;12163;49.316;6.092;2024-03-23T06:57:21;10.07;;;2.47;;
23952;SDS011;12163;49.316;6.092;2024-03-23T06:59:47;7.32;;;2.30;;
23952;SDS011;12163;49.316;6.092;2024-03-23T07:02:12;7.38;;;1.83;;
23952;SDS011;12163;49.316;6.092;2024-03-23T07:04:38;7.32;;;1.92;;
23952;SDS011;12163;49.316;6.092;2024-03-23T07:07:06;8.93;;;2.25;;
23952;SDS011;12163;49.316;6.092;2024-03-23T07:09:32;4.85;;;2.10;;
23952;SDS011;12163;49.316;6.092;2024-03-23T07:11:57;8.38;;;2.78;;
23952;SDS011;12163;49.316;6.092;2024-03-23T07:14:23;6.95;;;2.47;;
23952;SDS011;12163;49.316;6.092;2024-03-23T07:16:49;10.20;;;2.67;;
23952;SDS011;12163;49.316;6.092;2024-03-23T07:19:16;6.90;;;2.33;;
23952;SDS011;12163;49.316;6.092;2024-03-23T07:21:43;4.57;;;2.42;;
23952;SDS011;12163;49.316;6.092;2024-03-23T07:24:13;6.03;;;2.38;;
23952;SDS011;12163;49.316;6.092;2024-03-23T07:26:39;7.60;;;2.60;;
23952;SDS011;12163;49.316;6.092;2024-03-23T07:29:05;11.73;;;2.90;;
23952;SDS011;12163;49.316;6.092;2024-03-23T07:31:31;6.50;;;2.88;;
23952;SDS011;12163;49.316;6.092;2024-03-23T07:33:57;7.00;;;3.08;;
23952;SDS011;12163;49.316;6.092;2024-03-23T07:36:23;5.43;;;2.60;;
23952;SDS011;12163;49.316;6.092;2024-03-23T07:38:48;6.05;;;2.75;;
23952;SDS011;12163;49.316;6.092;2024-03-23T07:41:18;5.13;;;2.20;;
23952;SDS011;12163;49.316;6.092;2024-03-23T07:43:44;7.05;;;2.90;;
23952;SDS011;12163;49.316;6.092;2024-03-23T07:46:11;8.85;;;2.70;;
23952;SDS011;12163;49.316;6.092;2024-03-23T07:48:37;6.15;;;2.60;;
23952;SDS011;12163;49.316;6.092;2024-03-23T07:51:07;7.53;;;2.78;;
23952;SDS011;12163;49.316;6.092;2024-03-23T07:53:38;8.90;;;2.90;;
23952;SDS011;12163;49.316;6.092;2024-03-23T07:58:33;6.65;;;3.00;;
23952;SDS011;12163;49.316;6.092;2024-03-23T08:01:03;10.10;;;3.17;;
23952;SDS011;12163;49.316;6.092;2024-03-23T08:03:42;12.40;;;3.92;;
23952;SDS011;12163;49.316;6.092;2024-03-23T08:08:38;14.77;;;4.90;;
23952;SDS011;12163;49.316;6.092;2024-03-23T08:11:05;11.68;;;3.83;;
23952;SDS011;12163;49.316;6.092;2024-03-23T08:13:30;14.07;;;4.38;;
23952;SDS011;12163;49.316;6.092;2024-03-23T08:16:01;16.40;;;4.35;;
23952;SDS011;12163;49.316;6.092;2024-03-23T08:18:28;14.88;;;4.50;;
23952;SDS011;12163;49.316;6.092;2024-03-23T08:23:27;17.05;;;5.65;;
23952;SDS011;12163;49.316;6.092;2024-03-23T08:25:57;17.75;;;5.10;;
23952;SDS011;12163;49.316;6.092;2024-03-23T08:28:24;18.83;;;5.45;;
23952;SDS011;12163;49.316;6.092;2024-03-23T08:30:49;19.33;;;5.53;;
23952;SDS011;12163;49.316;6.092;2024-03-23T08:33:15;19.92;;;5.47;;
23952;SDS011;12163;49.316;6.092;2024-03-23T08:35:41;14.85;;;4.68;;
23952;SDS011;12163;49.316;6.092;2024-03-23T08:38:07;16.60;;;4.70;;
23952;SDS011;12163;49.316;6.092;2024-03-23T08:40:33;14.98;;;5.13;;
23952;SDS011;12163;49.316;6.092;2024-03-23T08:42:58;12.65;;;4.50;;
23952;SDS011;12163;49.316;6.092;2024-03-23T08:45:24;20.48;;;4.93;;
23952;SDS011;12163;49.316;6.092;2024-03-23T08:47:51;17.67;;;4.85;;
23952;SDS011;12163;49.316;6.092;2024-03-23T08:50:17;23.98;;;4.60;;
23952;SDS011;12163;49.316;6.092;2024-03-23T08:52:43;19.77;;;5.40;;
23952;SDS011;12163;49.316;6.092;2024-03-23T08:55:09;19.48;;;4.85;;
23952;SDS011;12163;49.316;6.092;2024-03-23T08:57:35;18.98;;;4.97;;
23952;SDS011;12163;49.316;6.092;2024-03-23T09:00:01;21.08;;;4.60;;
23952;SDS011;12163;49.316;6.092;2024-03-23T09:02:28;18.60;;;5.45;;
23952;SDS011;12163;49.316;6.092;2024-03-23T09:04:53;15.25;;;4.85;;
23952;SDS011;12163;49.316;6.092;2024-03-23T09:07:19;18.70;;;4.97;;
23952;SDS011;12163;49.316;6.092;2024-03-23T09:09:44;18.98;;;4.90;;
23952;SDS011;12163;49.316;6.092;2024-03-23T09:12:10;22.75;;;5.75;;
23952;SDS011;12163;49.316;6.092;2024-03-23T09:14:35;18.83;;;4.95;;
23952;SDS011;12163;49.316;6.092;2024-03-23T09:17:01;26.77;;;5.55;;
23952;SDS011;12163;49.316;6.092;2024-03-23T09:19:28;18.05;;;6.22;;
23952;SDS011;12163;49.316;6.092;2024-03-23T09:21:54;19.00;;;5.93;;
23952;SDS011;12163;49.316;6.092;2024-03-23T09:24:20;24.33;;;5.82;;
23952;SDS011;12163;49.316;6.092;2024-03-23T09:26:46;20.70;;;5.55;;
23952;SDS011;12163;49.316;6.092;2024-03-23T09:29:12;20.17;;;5.97;;
23952;SDS011;12163;49.316;6.092;2024-03-23T09:31:39;20.77;;;5.70;;
23952;SDS011;12163;49.316;6.092;2024-03-23T09:34:06;17.77;;;4.38;;
23952;SDS011;12163;49.316;6.092;2024-03-23T09:36:31;14.13;;;3.42;;
23952;SDS011;12163;49.316;6.092;2024-03-23T09:38:57;19.23;;;4.28;;
23952;SDS011;12163;49.316;6.092;2024-03-23T09:41:23;15.82;;;3.53;;
23952;SDS011;12163;49.316;6.092;2024-03-23T09:43:48;18.48;;;3.55;;
23952;SDS011;12163;49.316;6.092;2024-03-23T09:46:18;15.82;;;3.33;;
23952;SDS011;12163;49.316;6.092;2024-03-23T09:48:44;15.95;;;3.00;;
23952;SDS011;12163;49.316;6.092;2024-03-23T09:51:12;14.95;;;2.78;;
23952;SDS011;12163;49.316;6.092;2024-03-23T09:53:38;17.15;;;2.67;;
23952;SDS011;12163;49.316;6.092;2024-03-23T09:56:04;21.05;;;3.17;;
23952;SDS011;12163;49.316;6.092;2024-03-23T09:58:30;18.20;;;2.60;;
23952;SDS011;12163;49.316;6.092;2024-03-23T10:00:57;22.75;;;3.42;;
23952;SDS011;12163;49.316;6.092;2024-03-23T10:03:23;20.35;;;3.00;;
23952;SDS011;12163;49.316;6.092;2024-03-23T10:05:59;16.42;;;3.03;;
23952;SDS011;12163;49.316;6.092;2024-03-23T10:08:26;13.98;;;2.58;;
23952;SDS011;12163;49.316;6.092;2024-03-23T10:10:54;13.98;;;3.10;;
23952;SDS011;12163;49.316;6.092;2024-03-23T10:13:26;12.65;;;2.20;;
23952;SDS011;12163;49.316;6.092;2024-03-23T10:15:58;10.32;;;2.78;;
23952;SDS011;12163;49.316;6.092;2024-03-23T10:18:24;12.55;;;2.08;;
23952;SDS011;12163;49.316;6.092;2024-03-23T10:20:52;12.85;;;1.85;;
23952;SDS011;12163;49.316;6.092;2024-03-23T10:23:32;6.75;;;1.83;;
23952;SDS011;12163;49.316;6.092;2024-03-23T10:26:22;7.32;;;1.92;;
23952;SDS011;12163;49.316;6.092;2024-03-23T10:28:54;15.13;;;1.40;;
23952;SDS011;12163;49.316;6.092;2024-03-23T10:31:26;7.32;;;1.52;;
23952;SDS011;12163;49.316;6.092;2024-03-23T10:33:56;5.50;;;1.15;;
23952;SDS011;12163;49.316;6.092;2024-03-23T10:36:22;9.40;;;1.52;;
23952;SDS011;12163;49.316;6.092;2024-03-23T10:38:49;7.05;;;1.40;;
23952;SDS011;12163;49.316;6.092;2024-03-23T10:41:16;9.35;;;1.50;;
23952;SDS011;12163;49.316;6.092;2024-03-23T10:43:42;7.93;;;1.65;;
23952;SDS011;12163;49.316;6.092;2024-03-23T10:46:09;6.70;;;1.50;;
23952;SDS011;12163;49.316;6.092;2024-03-23T10:48:35;5.60;;;1.50;;
23952;SDS011;12163;49.316;6.092;2024-03-23T10:51:01;5.80;;;1.65;;
23952;SDS011;12163;49.316;6.092;2024-03-23T10:53:27;6.05;;;2.00;;
23952;SDS011;12163;49.316;6.092;2024-03-23T10:55:55;6.65;;;1.80;;
23952;SDS011;12163;49.316;6.092;2024-03-23T10:58:23;7.70;;;1.70;;
23952;SDS011;12163;49.316;6.092;2024-03-23T11:00:53;5.20;;;1.60;;
23952;SDS011;12163;49.316;6.092;2024-03-23T11:03:35;14.75;;;2.45;;
23952;SDS011;12163;49.316;6.092;2024-03-23T11:06:03;7.00;;;1.50;;
23952;SDS011;12163;49.316;6.092;2024-03-23T11:08:30;7.32;;;2.05;;
23952;SDS011;12163;49.316;6.092;2024-03-23T11:13:42;2.75;;;0.75;;
23952;SDS011;12163;49.316;6.092;2024-03-23T11:22:01;1.27;;;0.63;;
23952;SDS011;12163;49.316;6.092;2024-03-23T11:24:27;3.30;;;1.00;;
23952;SDS011;12163;49.316;6.092;2024-03-23T11:26:53;6.13;;;1.20;;
23952;SDS011;12163;49.316;6.092;2024-03-23T11:29:18;2.80;;;0.70;;
23952;SDS011;12163;49.316;6.092;2024-03-23T11:31:51;5.13;;;0.90;;
23952;SDS011;12163;49.316;6.092;2024-03-23T11:34:17;2.65;;;0.95;;
23952;SDS011;12163;49.316;6.092;2024-03-23T11:36:44;3.50;;;1.30;;
23952;SDS011;12163;49.316;6.092;2024-03-23T11:44:19;9.15;;;1.50;;
